sensor_id;sensor_type;location;lat;lon;timestamp;pressure;altitude;pressure_sealevel;temperature;humidity
56807;BME280;42687;42.524;12.052;2023-06-04T00:00:46;96794.84;;;14.01;100.00
56807;BME280;42687;42.524;12.052;2023-06-04T00:03:12;96774.59;;;14.13;100.00
56807;BME280;42687;42.524;12.052;2023-06-04T00:05:38;96777.81;;;14.29;100.00
56807;BME280;42687;42.524;12.052;2023-06-04T00:08:04;96772.31;;;14.32;100.00
56807;BME280;42687;42.524;12.052;2023-06-04T00:10:30;96780.53;;;14.41;100.00
56807;BME280;42687;42.524;12.052;2023-06-04T00:12:56;96779.97;;;14.48;100.00
56807;BME280;42687;42.524;12.052;2023-06-04T00:15:22;96770.09;;;14.50;100.00
56807;BME280;42687;42.524;12.052;2023-06-04T00:17:48;96755.31;;;14.48;100.00
56807;BME280;42687;42.524;12.052;2023-06-04T00:20:14;96759.41;;;14.52;100.00
56807;BME280;42687;42.524;12.052;2023-06-04T00:22:39;96766.63;;;14.50;100.00
56807;BME280;42687;42.524;12.052;2023-06-04T00:25:11;96752.81;;;14.33;100.00
56807;BME280;42687;42.524;12.052;2023-06-04T00:27:36;96761.00;;;14.30;100.00
56807;BME280;42687;42.524;12.052;2023-06-04T00:30:04;96751.53;;;14.15;100.00
56807;BME280;42687;42.524;12.052;2023-06-04T00:32:30;96752.72;;;14.11;100.00
56807;BME280;42687;42.524;12.052;2023-06-04T00:34:56;96754.75;;;14.07;100.00
56807;BME280;42687;42.524;12.052;2023-06-04T00:37:27;96760.25;;;14.04;100.00
56807;BME280;42687;42.524;12.052;2023-06-04T00:39:53;96766.41;;;14.05;100.00
56807;BME280;42687;42.524;12.052;2023-06-04T00:42:19;96757.59;;;14.04;100.00
56807;BME280;42687;42.524;12.052;2023-06-04T00:44:45;96750.00;;;13.99;100.00
56807;BME280;42687;42.524;12.052;2023-06-04T00:47:18;96748.44;;;13.97;100.00
56807;BME280;42687;42.524;12.052;2023-06-04T00:49:45;96745.91;;;13.95;100.00
56807;BME280;42687;42.524;12.052;2023-06-04T00:52:15;96752.38;;;13.91;100.00
56807;BME280;42687;42.524;12.052;2023-06-04T00:54:42;96758.25;;;13.95;100.00
56807;BME280;42687;42.524;12.052;2023-06-04T00:57:07;96760.59;;;13.99;100.00
56807;BME280;42687;42.524;12.052;2023-06-04T00:59:36;96751.06;;;13.97;100.00
56807;BME280;42687;42.524;12.052;2023-06-04T01:02:18;96750.00;;;13.99;100.00
56807;BME280;42687;42.524;12.052;2023-06-04T01:05:08;96743.88;;;13.99;100.00
56807;BME280;42687;42.524;12.052;2023-06-04T01:07:36;96743.03;;;13.98;100.00
56807;BME280;42687;42.524;12.052;2023-06-04T01:10:02;96746.44;;;14.00;100.00
56807;BME280;42687;42.524;12.052;2023-06-04T01:12:28;96742.75;;;13.90;100.00
56807;BME280;42687;42.524;12.052;2023-06-04T01:14:54;96735.91;;;13.75;100.00
56807;BME280;42687;42.524;12.052;2023-06-04T01:17:29;96734.16;;;13.62;100.00
56807;BME280;42687;42.524;12.052;2023-06-04T01:20:26;96728.47;;;13.56;100.00
56807;BME280;42687;42.524;12.052;2023-06-04T01:23:05;96721.38;;;13.43;100.00
56807;BME280;42687;42.524;12.052;2023-06-04T01:25:41;96730.88;;;13.46;100.00
56807;BME280;42687;42.524;12.052;2023-06-04T01:28:12;96732.91;;;13.42;100.00
56807;BME280;42687;42.524;12.052;2023-06-04T01:30:44;96731.94;;;13.30;100.00
56807;BME280;42687;42.524;12.052;2023-06-04T01:33:13;96738.69;;;13.22;100.00
56807;BME280;42687;42.524;12.052;2023-06-04T01:35:39;96730.88;;;13.07;100.00
56807;BME280;42687;42.524;12.052;2023-06-04T01:38:06;96728.25;;;13.07;100.00
56807;BME280;42687;42.524;12.052;2023-06-04T01:40:32;96734.47;;;13.06;100.00
56807;BME280;42687;42.524;12.052;2023-06-04T01:42:58;96737.09;;;13.06;100.00
56807;BME280;42687;42.524;12.052;2023-06-04T01:45:27;96742.50;;;13.05;100.00
56807;BME280;42687;42.524;12.052;2023-06-04T01:47:53;96732.44;;;12.97;100.00
56807;BME280;42687;42.524;12.052;2023-06-04T01:50:20;96737.94;;;12.94;100.00
56807;BME280;42687;42.524;12.052;2023-06-04T01:52:45;96732.03;;;12.90;100.00
56807;BME280;42687;42.524;12.052;2023-06-04T01:55:14;96744.94;;;12.95;100.00
56807;BME280;42687;42.524;12.052;2023-06-04T01:57:42;96740.78;;;13.04;100.00
56807;BME280;42687;42.524;12.052;2023-06-04T02:00:10;96729.72;;;13.11;100.00
56807;BME280;42687;42.524;12.052;2023-06-04T02:02:38;96733.09;;;13.13;100.00
56807;BME280;42687;42.524;12.052;2023-06-04T02:05:05;96745.97;;;13.18;100.00
56807;BME280;42687;42.524;12.052;2023-06-04T02:07:41;96740.09;;;13.14;100.00
56807;BME280;42687;42.524;12.052;2023-06-04T02:10:16;96732.88;;;13.16;100.00
56807;BME280;42687;42.524;12.052;2023-06-04T02:12:59;96739.13;;;13.15;100.00
56807;BME280;42687;42.524;12.052;2023-06-04T02:15:26;96742.63;;;13.16;100.00
56807;BME280;42687;42.524;12.052;2023-06-04T02:18:10;96744.38;;;13.15;100.00
56807;BME280;42687;42.524;12.052;2023-06-04T02:20:42;96746.31;;;13.13;100.00
56807;BME280;42687;42.524;12.052;2023-06-04T02:23:09;96747.47;;;13.09;100.00
56807;BME280;42687;42.524;12.052;2023-06-04T02:25:35;96733.41;;;13.09;100.00
56807;BME280;42687;42.524;12.052;2023-06-04T02:28:00;96738.81;;;13.20;100.00
56807;BME280;42687;42.524;12.052;2023-06-04T02:30:26;96734.66;;;13.29;100.00
56807;BME280;42687;42.524;12.052;2023-06-04T02:32:51;96747.06;;;13.41;100.00
56807;BME280;42687;42.524;12.052;2023-06-04T02:35:17;96753.41;;;13.51;100.00
56807;BME280;42687;42.524;12.052;2023-06-04T02:37:43;96741.66;;;13.56;100.00
56807;BME280;42687;42.524;12.052;2023-06-04T02:40:10;96737.09;;;13.58;100.00
56807;BME280;42687;42.524;12.052;2023-06-04T02:42:36;96739.53;;;13.61;100.00
56807;BME280;42687;42.524;12.052;2023-06-04T02:45:01;96745.00;;;13.71;100.00
56807;BME280;42687;42.524;12.052;2023-06-04T02:47:27;96736.25;;;13.70;100.00
56807;BME280;42687;42.524;12.052;2023-06-04T02:49:53;96744.91;;;13.72;100.00
56807;BME280;42687;42.524;12.052;2023-06-04T02:52:18;96676.38;;;13.32;100.00
56807;BME280;42687;42.524;12.052;2023-06-04T02:54:44;96731.81;;;13.71;100.00
56807;BME280;42687;42.524;12.052;2023-06-04T02:57:10;96736.97;;;13.72;100.00
56807;BME280;42687;42.524;12.052;2023-06-04T02:59:35;96730.97;;;13.70;100.00
56807;BME280;42687;42.524;12.052;2023-06-04T03:02:03;96732.22;;;13.64;100.00
56807;BME280;42687;42.524;12.052;2023-06-04T03:04:29;96734.97;;;13.63;100.00
56807;BME280;42687;42.524;12.052;2023-06-04T03:07:03;96719.78;;;13.54;100.00
56807;BME280;42687;42.524;12.052;2023-06-04T03:09:32;96730.56;;;13.50;100.00
56807;BME280;42687;42.524;12.052;2023-06-04T03:12:02;96728.25;;;13.46;100.00
56807;BME280;42687;42.524;12.052;2023-06-04T03:14:29;96723.50;;;13.38;100.00
56807;BME280;42687;42.524;12.052;2023-06-04T03:17:02;96716.81;;;13.32;100.00
56807;BME280;42687;42.524;12.052;2023-06-04T03:19:39;96722.75;;;13.23;100.00
56807;BME280;42687;42.524;12.052;2023-06-04T03:22:07;96722.44;;;13.15;100.00
56807;BME280;42687;42.524;12.052;2023-06-04T03:24:38;96734.69;;;13.16;100.00
56807;BME280;42687;42.524;12.052;2023-06-04T03:27:04;96724.00;;;13.05;100.00
56807;BME280;42687;42.524;12.052;2023-06-04T03:29:31;96725.72;;;13.06;100.00
56807;BME280;42687;42.524;12.052;2023-06-04T03:31:58;96744.63;;;13.12;100.00
56807;BME280;42687;42.524;12.052;2023-06-04T03:34:24;96728.25;;;13.07;100.00
56807;BME280;42687;42.524;12.052;2023-06-04T03:36:55;96726.25;;;13.11;100.00
56807;BME280;42687;42.524;12.052;2023-06-04T03:39:21;96723.50;;;13.12;100.00
56807;BME280;42687;42.524;12.052;2023-06-04T03:41:47;96712.41;;;13.20;100.00
56807;BME280;42687;42.524;12.052;2023-06-04T03:44:15;96721.69;;;13.26;100.00
56807;BME280;42687;42.524;12.052;2023-06-04T03:46:41;96724.84;;;13.31;100.00
56807;BME280;42687;42.524;12.052;2023-06-04T03:49:09;96716.41;;;13.26;100.00
56807;BME280;42687;42.524;12.052;2023-06-04T03:51:39;96672.50;;;12.99;100.00
56807;BME280;42687;42.524;12.052;2023-06-04T03:54:05;96725.81;;;13.30;100.00
56807;BME280;42687;42.524;12.052;2023-06-04T03:56:31;96714.09;;;13.21;100.00
56807;BME280;42687;42.524;12.052;2023-06-04T03:58:57;96720.09;;;13.23;100.00
56807;BME280;42687;42.524;12.052;2023-06-04T04:01:23;96708.06;;;13.19;100.00
56807;BME280;42687;42.524;12.052;2023-06-04T04:03:50;96693.91;;;13.20;100.00
56807;BME280;42687;42.524;12.052;2023-06-04T04:06:17;96709.44;;;13.25;100.00
56807;BME280;42687;42.524;12.052;2023-06-04T04:08:43;96702.69;;;13.21;100.00
56807;BME280;42687;42.524;12.052;2023-06-04T04:11:13;96706.72;;;13.26;100.00
56807;BME280;42687;42.524;12.052;2023-06-04T04:13:39;96710.19;;;13.27;100.00
56807;BME280;42687;42.524;12.052;2023-06-04T04:16:05;96704.06;;;13.26;100.00
56807;BME280;42687;42.524;12.052;2023-06-04T04:18:35;96721.91;;;13.35;100.00
56807;BME280;42687;42.524;12.052;2023-06-04T04:21:03;96717.38;;;13.38;100.00
56807;BME280;42687;42.524;12.052;2023-06-04T04:23:29;96721.19;;;13.46;100.00
56807;BME280;42687;42.524;12.052;2023-06-04T04:25:58;96714.09;;;13.47;100.00
56807;BME280;42687;42.524;12.052;2023-06-04T04:28:27;96714.84;;;13.49;100.00
56807;BME280;42687;42.524;12.052;2023-06-04T04:30:57;96716.91;;;13.57;100.00
56807;BME280;42687;42.524;12.052;2023-06-04T04:33:23;96717.03;;;13.55;100.00
56807;BME280;42687;42.524;12.052;2023-06-04T04:35:52;96710.56;;;13.59;100.00
56807;BME280;42687;42.524;12.052;2023-06-04T04:38:21;96713.84;;;13.63;100.00
56807;BME280;42687;42.524;12.052;2023-06-04T04:40:50;96710.13;;;13.65;100.00
56807;BME280;42687;42.524;12.052;2023-06-04T04:43:35;96711.41;;;13.73;100.00
56807;BME280;42687;42.524;12.052;2023-06-04T04:46:01;96718.16;;;13.77;100.00
56807;BME280;42687;42.524;12.052;2023-06-04T04:48:27;96729.84;;;13.85;100.00
56807;BME280;42687;42.524;12.052;2023-06-04T04:50:53;96717.56;;;13.84;100.00
56807;BME280;42687;42.524;12.052;2023-06-04T04:53:20;96709.66;;;13.84;100.00
56807;BME280;42687;42.524;12.052;2023-06-04T04:55:46;96718.59;;;13.95;100.00
56807;BME280;42687;42.524;12.052;2023-06-04T04:58:12;96711.31;;;13.98;100.00
56807;BME280;42687;42.524;12.052;2023-06-04T05:00:38;96724.38;;;14.13;100.00
56807;BME280;42687;42.524;12.052;2023-06-04T05:03:04;96713.66;;;14.14;100.00
56807;BME280;42687;42.524;12.052;2023-06-04T05:05:30;96713.94;;;14.23;100.00
56807;BME280;42687;42.524;12.052;2023-06-04T05:07:55;96727.75;;;14.39;100.00
56807;BME280;42687;42.524;12.052;2023-06-04T05:10:21;96720.41;;;14.43;100.00
56807;BME280;42687;42.524;12.052;2023-06-04T05:12:53;96733.06;;;14.50;100.00
56807;BME280;42687;42.524;12.052;2023-06-04T05:15:19;96739.59;;;14.58;100.00
56807;BME280;42687;42.524;12.052;2023-06-04T05:17:46;96739.16;;;14.64;100.00
56807;BME280;42687;42.524;12.052;2023-06-04T05:20:13;96741.34;;;14.70;100.00
56807;BME280;42687;42.524;12.052;2023-06-04T05:22:39;96726.22;;;14.72;100.00
56807;BME280;42687;42.524;12.052;2023-06-04T05:25:05;96741.41;;;14.81;100.00
56807;BME280;42687;42.524;12.052;2023-06-04T05:27:32;96745.88;;;14.92;100.00
56807;BME280;42687;42.524;12.052;2023-06-04T05:29:58;96748.78;;;15.00;100.00
56807;BME280;42687;42.524;12.052;2023-06-04T05:32:24;96740.22;;;14.97;100.00
56807;BME280;42687;42.524;12.052;2023-06-04T05:34:57;96682.38;;;14.68;100.00
56807;BME280;42687;42.524;12.052;2023-06-04T05:37:26;96747.00;;;15.12;100.00
56807;BME280;42687;42.524;12.052;2023-06-04T05:39:53;96745.19;;;15.13;100.00
56807;BME280;42687;42.524;12.052;2023-06-04T05:42:19;96763.63;;;15.26;100.00
56807;BME280;42687;42.524;12.052;2023-06-04T05:44:45;96769.16;;;15.34;100.00
56807;BME280;42687;42.524;12.052;2023-06-04T05:47:11;96766.75;;;15.42;100.00
56807;BME280;42687;42.524;12.052;2023-06-04T05:49:36;96763.53;;;15.61;100.00
56807;BME280;42687;42.524;12.052;2023-06-04T05:52:02;96770.38;;;15.98;100.00
56807;BME280;42687;42.524;12.052;2023-06-04T05:54:29;96784.38;;;16.88;100.00
56807;BME280;42687;42.524;12.052;2023-06-04T05:56:55;96779.59;;;17.76;100.00
56807;BME280;42687;42.524;12.052;2023-06-04T05:59:22;96783.19;;;18.66;100.00
56807;BME280;42687;42.524;12.052;2023-06-04T06:04:14;96803.13;;;20.43;100.00
56807;BME280;42687;42.524;12.052;2023-06-04T06:06:42;96796.81;;;21.16;100.00
56807;BME280;42687;42.524;12.052;2023-06-04T06:09:10;96797.72;;;21.70;100.00
56807;BME280;42687;42.524;12.052;2023-06-04T06:11:36;96807.22;;;22.25;100.00
56807;BME280;42687;42.524;12.052;2023-06-04T06:14:02;96804.97;;;22.46;100.00
56807;BME280;42687;42.524;12.052;2023-06-04T06:16:28;96806.03;;;22.70;100.00
56807;BME280;42687;42.524;12.052;2023-06-04T06:18:54;96799.38;;;22.99;100.00
56807;BME280;42687;42.524;12.052;2023-06-04T06:21:20;96807.78;;;23.21;100.00
56807;BME280;42687;42.524;12.052;2023-06-04T06:23:46;96805.09;;;23.37;100.00
56807;BME280;42687;42.524;12.052;2023-06-04T06:26:12;96806.94;;;23.53;100.00
56807;BME280;42687;42.524;12.052;2023-06-04T06:28:39;96810.06;;;23.98;97.70
56807;BME280;42687;42.524;12.052;2023-06-04T06:31:04;96801.19;;;24.29;94.01
56807;BME280;42687;42.524;12.052;2023-06-04T06:33:31;96809.34;;;24.44;91.72
56807;BME280;42687;42.524;12.052;2023-06-04T06:35:57;96817.09;;;24.47;91.32
56807;BME280;42687;42.524;12.052;2023-06-04T06:38:26;96814.53;;;24.45;89.63
56807;BME280;42687;42.524;12.052;2023-06-04T06:40:52;96820.88;;;24.61;87.79
56807;BME280;42687;42.524;12.052;2023-06-04T06:43:18;96774.78;;;24.41;85.85
56807;BME280;42687;42.524;12.052;2023-06-04T06:45:44;96815.06;;;24.80;84.84
56807;BME280;42687;42.524;12.052;2023-06-04T06:48:10;96821.34;;;24.96;84.44
56807;BME280;42687;42.524;12.052;2023-06-04T06:50:35;96832.78;;;24.98;84.08
56807;BME280;42687;42.524;12.052;2023-06-04T06:53:04;96834.09;;;25.25;83.34
56807;BME280;42687;42.524;12.052;2023-06-04T06:55:30;96813.59;;;25.24;82.73
56807;BME280;42687;42.524;12.052;2023-06-04T06:57:56;96829.84;;;25.08;83.00
56807;BME280;42687;42.524;12.052;2023-06-04T07:00:21;96773.59;;;24.43;84.63
56807;BME280;42687;42.524;12.052;2023-06-04T07:02:48;96809.59;;;24.34;85.83
56807;BME280;42687;42.524;12.052;2023-06-04T07:05:15;96817.44;;;23.96;86.29
56807;BME280;42687;42.524;12.052;2023-06-04T07:07:42;96818.13;;;23.81;87.61
56807;BME280;42687;42.524;12.052;2023-06-04T07:10:09;96824.66;;;23.95;87.50
56807;BME280;42687;42.524;12.052;2023-06-04T07:12:35;96820.13;;;23.96;87.27
56807;BME280;42687;42.524;12.052;2023-06-04T07:15:01;96815.75;;;23.95;87.32
56807;BME280;42687;42.524;12.052;2023-06-04T07:17:27;96816.63;;;23.71;88.38
56807;BME280;42687;42.524;12.052;2023-06-04T07:19:53;96816.97;;;23.59;88.59
56807;BME280;42687;42.524;12.052;2023-06-04T07:22:18;96826.84;;;23.67;88.13
56807;BME280;42687;42.524;12.052;2023-06-04T07:24:44;96816.13;;;23.75;87.89
56807;BME280;42687;42.524;12.052;2023-06-04T07:27:14;96800.88;;;24.24;87.02
56807;BME280;42687;42.524;12.052;2023-06-04T07:29:43;96808.44;;;24.91;84.78
56807;BME280;42687;42.524;12.052;2023-06-04T07:32:10;96818.03;;;25.40;84.36
56807;BME280;42687;42.524;12.052;2023-06-04T07:34:38;96819.25;;;25.68;83.54
56807;BME280;42687;42.524;12.052;2023-06-04T07:37:05;96808.34;;;25.84;83.38
56807;BME280;42687;42.524;12.052;2023-06-04T07:39:31;96818.69;;;26.10;82.53
56807;BME280;42687;42.524;12.052;2023-06-04T07:41:57;96806.59;;;26.36;82.33
56807;BME280;42687;42.524;12.052;2023-06-04T07:44:23;96819.75;;;26.76;81.26
56807;BME280;42687;42.524;12.052;2023-06-04T07:46:48;96822.97;;;27.08;79.84
56807;BME280;42687;42.524;12.052;2023-06-04T07:49:14;96822.78;;;27.31;79.05
56807;BME280;42687;42.524;12.052;2023-06-04T07:51:40;96821.66;;;27.40;77.75
56807;BME280;42687;42.524;12.052;2023-06-04T07:54:06;96808.34;;;27.39;77.67
56807;BME280;42687;42.524;12.052;2023-06-04T07:56:32;96815.28;;;27.48;77.32
56807;BME280;42687;42.524;12.052;2023-06-04T07:58:58;96822.94;;;27.73;76.29
56807;BME280;42687;42.524;12.052;2023-06-04T08:01:23;96751.66;;;27.39;75.09
56807;BME280;42687;42.524;12.052;2023-06-04T08:03:50;96823.72;;;27.95;74.18
56807;BME280;42687;42.524;12.052;2023-06-04T08:06:16;96826.56;;;27.58;74.76
56807;BME280;42687;42.524;12.052;2023-06-04T08:08:45;96818.75;;;27.42;74.98
56807;BME280;42687;42.524;12.052;2023-06-04T08:11:14;96789.25;;;27.40;74.02
56807;BME280;42687;42.524;12.052;2023-06-04T08:13:41;96823.00;;;27.79;73.50
56807;BME280;42687;42.524;12.052;2023-06-04T08:16:07;96819.31;;;27.87;72.63
56807;BME280;42687;42.524;12.052;2023-06-04T08:18:38;96826.97;;;27.84;73.38
56807;BME280;42687;42.524;12.052;2023-06-04T08:21:04;96808.75;;;27.92;71.92
56807;BME280;42687;42.524;12.052;2023-06-04T08:23:31;96809.53;;;27.86;71.91
56807;BME280;42687;42.524;12.052;2023-06-04T08:25:57;96819.78;;;27.98;71.16
56807;BME280;42687;42.524;12.052;2023-06-04T08:28:24;96815.97;;;28.13;70.49
56807;BME280;42687;42.524;12.052;2023-06-04T08:30:51;96822.03;;;27.94;70.09
56807;BME280;42687;42.524;12.052;2023-06-04T08:33:16;96816.41;;;27.60;70.85
56807;BME280;42687;42.524;12.052;2023-06-04T08:35:42;96824.53;;;27.60;70.76
56807;BME280;42687;42.524;12.052;2023-06-04T08:38:08;96815.72;;;27.52;71.08
56807;BME280;42687;42.524;12.052;2023-06-04T08:40:34;96827.38;;;27.52;70.83
56807;BME280;42687;42.524;12.052;2023-06-04T08:43:01;96823.00;;;27.29;71.35
56807;BME280;42687;42.524;12.052;2023-06-04T08:45:27;96822.41;;;27.12;71.24
56807;BME280;42687;42.524;12.052;2023-06-04T08:47:53;96798.00;;;26.99;71.29
56807;BME280;42687;42.524;12.052;2023-06-04T08:50:22;96830.06;;;27.09;72.31
56807;BME280;42687;42.524;12.052;2023-06-04T08:52:52;96829.91;;;27.17;71.51
56807;BME280;42687;42.524;12.052;2023-06-04T08:55:19;96838.72;;;27.26;71.39
56807;BME280;42687;42.524;12.052;2023-06-04T08:57:45;96843.47;;;27.24;71.96
56807;BME280;42687;42.524;12.052;2023-06-04T09:00:12;96854.53;;;27.29;71.41
56807;BME280;42687;42.524;12.052;2023-06-04T09:02:38;96846.19;;;27.02;72.30
56807;BME280;42687;42.524;12.052;2023-06-04T09:05:06;96826.75;;;26.55;73.17
56807;BME280;42687;42.524;12.052;2023-06-04T09:07:36;96849.91;;;26.35;72.89
56807;BME280;42687;42.524;12.052;2023-06-04T09:10:07;96854.63;;;26.33;72.74
56807;BME280;42687;42.524;12.052;2023-06-04T09:12:36;96841.06;;;26.56;70.87
56807;BME280;42687;42.524;12.052;2023-06-04T09:15:03;96854.50;;;26.86;70.40
56807;BME280;42687;42.524;12.052;2023-06-04T09:17:28;96849.41;;;27.12;70.05
56807;BME280;42687;42.524;12.052;2023-06-04T09:19:55;96862.84;;;27.27;69.53
56807;BME280;42687;42.524;12.052;2023-06-04T09:22:34;96851.25;;;27.12;68.79
56807;BME280;42687;42.524;12.052;2023-06-04T09:25:04;96853.03;;;26.83;69.19
56807;BME280;42687;42.524;12.052;2023-06-04T09:27:38;96852.22;;;26.38;70.16
56807;BME280;42687;42.524;12.052;2023-06-04T09:30:05;96851.31;;;26.30;70.16
56807;BME280;42687;42.524;12.052;2023-06-04T09:32:31;96865.44;;;26.47;69.95
56807;BME280;42687;42.524;12.052;2023-06-04T09:35:15;96851.31;;;26.30;69.86
56807;BME280;42687;42.524;12.052;2023-06-04T09:37:50;96853.16;;;26.45;69.94
56807;BME280;42687;42.524;12.052;2023-06-04T09:40:17;96864.41;;;26.34;69.43
56807;BME280;42687;42.524;12.052;2023-06-04T09:42:46;96852.03;;;26.24;69.78
56807;BME280;42687;42.524;12.052;2023-06-04T09:45:26;96852.22;;;26.23;68.61
56807;BME280;42687;42.524;12.052;2023-06-04T09:47:54;96854.47;;;26.34;69.15
56807;BME280;42687;42.524;12.052;2023-06-04T09:50:40;96856.22;;;26.27;68.74
56807;BME280;42687;42.524;12.052;2023-06-04T09:53:20;96859.88;;;26.34;68.19
56807;BME280;42687;42.524;12.052;2023-06-04T09:55:58;96856.69;;;26.30;68.31
56807;BME280;42687;42.524;12.052;2023-06-04T09:58:28;96838.19;;;26.12;68.58
56807;BME280;42687;42.524;12.052;2023-06-04T10:01:04;96838.44;;;26.03;68.86
56807;BME280;42687;42.524;12.052;2023-06-04T10:03:32;96835.09;;;26.01;68.40
56807;BME280;42687;42.524;12.052;2023-06-04T10:06:00;96834.94;;;26.02;68.11
56807;BME280;42687;42.524;12.052;2023-06-04T10:08:27;96842.84;;;26.34;67.98
56807;BME280;42687;42.524;12.052;2023-06-04T10:10:56;96829.06;;;26.58;67.04
56807;BME280;42687;42.524;12.052;2023-06-04T10:13:25;96838.97;;;26.58;67.33
56807;BME280;42687;42.524;12.052;2023-06-04T10:15:52;96837.63;;;26.32;67.32
56807;BME280;42687;42.524;12.052;2023-06-04T10:18:19;96843.31;;;26.07;67.92
56807;BME280;42687;42.524;12.052;2023-06-04T10:20:45;96846.81;;;25.93;68.26
56807;BME280;42687;42.524;12.052;2023-06-04T10:23:11;96853.94;;;25.86;67.73
56807;BME280;42687;42.524;12.052;2023-06-04T10:25:38;96790.59;;;25.60;67.14
56807;BME280;42687;42.524;12.052;2023-06-04T10:28:04;96851.44;;;25.84;67.48
56807;BME280;42687;42.524;12.052;2023-06-04T10:30:30;96855.72;;;25.78;67.53
56807;BME280;42687;42.524;12.052;2023-06-04T10:32:57;96849.34;;;25.56;67.46
56807;BME280;42687;42.524;12.052;2023-06-04T10:35:30;96850.50;;;25.30;67.27
56807;BME280;42687;42.524;12.052;2023-06-04T10:38:10;96857.25;;;24.80;68.64
56807;BME280;42687;42.524;12.052;2023-06-04T10:40:37;96849.06;;;24.25;69.51
56807;BME280;42687;42.524;12.052;2023-06-04T10:43:14;96854.88;;;23.89;69.62
56807;BME280;42687;42.524;12.052;2023-06-04T10:45:42;96847.34;;;23.60;70.01
56807;BME280;42687;42.524;12.052;2023-06-04T10:48:10;96859.75;;;23.44;69.68
56807;BME280;42687;42.524;12.052;2023-06-04T10:50:49;96842.00;;;23.52;69.56
56807;BME280;42687;42.524;12.052;2023-06-04T10:53:15;96845.34;;;23.70;69.01
56807;BME280;42687;42.524;12.052;2023-06-04T10:55:48;96852.19;;;23.89;67.99
56807;BME280;42687;42.524;12.052;2023-06-04T10:58:14;96849.50;;;23.89;67.92
56807;BME280;42687;42.524;12.052;2023-06-04T11:00:45;96839.25;;;23.85;67.99
56807;BME280;42687;42.524;12.052;2023-06-04T11:03:13;96848.31;;;23.84;67.62
56807;BME280;42687;42.524;12.052;2023-06-04T11:05:43;96853.03;;;23.73;67.50
56807;BME280;42687;42.524;12.052;2023-06-04T11:08:10;96849.19;;;23.51;67.96
56807;BME280;42687;42.524;12.052;2023-06-04T11:10:45;96858.44;;;23.40;67.75
56807;BME280;42687;42.524;12.052;2023-06-04T11:13:11;96861.94;;;23.24;67.91
56807;BME280;42687;42.524;12.052;2023-06-04T11:15:41;96858.19;;;22.92;68.50
56807;BME280;42687;42.524;12.052;2023-06-04T11:18:07;96834.63;;;22.53;69.18
56807;BME280;42687;42.524;12.052;2023-06-04T11:20:33;96810.81;;;22.07;69.58
56807;BME280;42687;42.524;12.052;2023-06-04T11:23:00;96848.72;;;22.21;69.59
56807;BME280;42687;42.524;12.052;2023-06-04T11:25:29;96839.63;;;22.13;69.37
56807;BME280;42687;42.524;12.052;2023-06-04T11:28:00;96840.53;;;21.96;69.72
56807;BME280;42687;42.524;12.052;2023-06-04T11:30:27;96848.31;;;22.07;69.61
56807;BME280;42687;42.524;12.052;2023-06-04T11:33:03;96833.97;;;22.16;69.43
56807;BME280;42687;42.524;12.052;2023-06-04T11:35:30;96841.44;;;22.39;69.21
56807;BME280;42687;42.524;12.052;2023-06-04T11:37:58;96841.50;;;22.56;68.50
56807;BME280;42687;42.524;12.052;2023-06-04T11:40:24;96835.84;;;22.59;68.47
56807;BME280;42687;42.524;12.052;2023-06-04T11:42:52;96842.88;;;22.68;68.35
56807;BME280;42687;42.524;12.052;2023-06-04T11:45:20;96840.84;;;22.62;68.33
56807;BME280;42687;42.524;12.052;2023-06-04T11:47:51;96845.84;;;22.48;68.68
56807;BME280;42687;42.524;12.052;2023-06-04T11:50:17;96839.78;;;22.46;68.72
56807;BME280;42687;42.524;12.052;2023-06-04T11:52:43;96842.13;;;22.41;68.46
56807;BME280;42687;42.524;12.052;2023-06-04T11:55:12;96841.44;;;22.39;68.54
56807;BME280;42687;42.524;12.052;2023-06-04T11:57:39;96838.34;;;22.26;68.24
56807;BME280;42687;42.524;12.052;2023-06-04T12:00:07;96830.22;;;22.09;68.50
56807;BME280;42687;42.524;12.052;2023-06-04T12:02:52;96835.47;;;21.85;68.76
56807;BME280;42687;42.524;12.052;2023-06-04T12:05:19;96844.47;;;21.57;69.50
56807;BME280;42687;42.524;12.052;2023-06-04T12:08:04;96852.81;;;21.36;70.17
56807;BME280;42687;42.524;12.052;2023-06-04T12:10:37;96846.31;;;21.21;70.32
56807;BME280;42687;42.524;12.052;2023-06-04T12:13:03;96845.50;;;21.20;71.74
56807;BME280;42687;42.524;12.052;2023-06-04T12:15:29;96834.50;;;21.05;70.88
56807;BME280;42687;42.524;12.052;2023-06-04T12:17:54;96785.41;;;20.70;70.66
56807;BME280;42687;42.524;12.052;2023-06-04T12:20:37;96840.41;;;21.09;70.88
56807;BME280;42687;42.524;12.052;2023-06-04T12:23:05;96836.94;;;21.16;70.91
56807;BME280;42687;42.524;12.052;2023-06-04T12:25:32;96840.53;;;21.25;71.15
56807;BME280;42687;42.524;12.052;2023-06-04T12:27:58;96835.09;;;21.35;70.75
56807;BME280;42687;42.524;12.052;2023-06-04T12:30:37;96833.47;;;21.42;70.95
56807;BME280;42687;42.524;12.052;2023-06-04T12:33:03;96841.41;;;21.52;70.99
56807;BME280;42687;42.524;12.052;2023-06-04T12:35:29;96837.66;;;21.63;71.12
56807;BME280;42687;42.524;12.052;2023-06-04T12:37:55;96845.91;;;21.70;71.30
56807;BME280;42687;42.524;12.052;2023-06-04T12:40:20;96837.03;;;21.69;71.29
56807;BME280;42687;42.524;12.052;2023-06-04T12:42:50;96833.16;;;21.63;71.49
56807;BME280;42687;42.524;12.052;2023-06-04T12:45:15;96836.66;;;21.64;71.72
56807;BME280;42687;42.524;12.052;2023-06-04T12:47:42;96852.72;;;21.64;71.86
56807;BME280;42687;42.524;12.052;2023-06-04T12:50:08;96851.91;;;21.63;71.85
56807;BME280;42687;42.524;12.052;2023-06-04T12:52:33;96842.72;;;21.66;72.18